createdAt,value
2018-12-18T00:00:13.802Z,4.17
2018-12-18T00:02:42.442Z,5.53
2018-12-18T00:05:16.474Z,4.70
2018-12-18T00:07:45.118Z,4.27
2018-12-18T00:10:13.800Z,3.40
2018-12-18T00:12:42.446Z,4.00
2018-12-18T00:15:11.079Z,4.73
2018-12-18T00:17:39.705Z,5.23
2018-12-18T00:20:08.403Z,4.50
2018-12-18T00:22:37.075Z,3.43
2018-12-18T00:25:06.507Z,4.23
2018-12-18T00:27:35.160Z,3.80
2018-12-18T00:30:04.646Z,4.50
2018-12-18T00:32:33.308Z,3.67
2018-12-18T00:35:01.956Z,5.23
2018-12-18T00:37:30.579Z,4.97
2018-12-18T00:39:59.183Z,4.57
2018-12-18T00:42:27.841Z,6.47
2018-12-18T00:44:56.469Z,6.53
2018-12-18T00:47:25.091Z,5.47
2018-12-18T00:49:53.703Z,3.93
2018-12-18T00:52:22.321Z,3.37
2018-12-18T00:54:50.952Z,2.63
2018-12-18T00:57:19.576Z,2.53
2018-12-18T00:59:48.191Z,2.50
2018-12-18T01:02:16.813Z,2.63
2018-12-18T01:04:46.382Z,3.37
2018-12-18T01:07:15.123Z,2.77
2018-12-18T01:09:43.775Z,2.97
2018-12-18T01:12:12.451Z,2.23
2018-12-18T01:14:41.089Z,3.40
2018-12-18T01:17:09.747Z,4.37
2018-12-18T01:19:38.376Z,3.90
2018-12-18T01:22:07.058Z,3.80
2018-12-18T01:24:35.718Z,3.80
2018-12-18T01:27:04.344Z,4.77
2018-12-18T01:29:32.967Z,4.40
2018-12-18T01:32:01.627Z,3.93
2018-12-18T01:34:30.335Z,3.70
2018-12-18T01:36:59.013Z,3.10
2018-12-18T01:39:27.627Z,3.13
2018-12-18T01:41:56.268Z,3.37
2018-12-18T01:44:24.884Z,3.90
2018-12-18T01:46:53.521Z,3.77
2018-12-18T01:49:22.141Z,3.87
2018-12-18T01:51:50.772Z,3.20
2018-12-18T01:54:19.395Z,2.60
2018-12-18T01:56:48.019Z,2.20
2018-12-18T01:59:16.640Z,1.80
2018-12-18T02:01:45.273Z,1.67
2018-12-18T02:04:13.924Z,1.63
2018-12-18T02:06:42.532Z,1.37
2018-12-18T02:09:11.300Z,2.13
2018-12-18T02:11:39.959Z,1.40
2018-12-18T02:14:08.584Z,2.30
2018-12-18T02:16:37.228Z,2.33
2018-12-18T02:19:05.831Z,3.07
2018-12-18T02:21:34.468Z,2.60
2018-12-18T02:24:03.126Z,2.40
2018-12-18T02:26:31.817Z,2.80
2018-12-18T02:29:00.539Z,3.20
2018-12-18T02:31:29.178Z,3.13
2018-12-18T02:33:57.802Z,3.43
2018-12-18T02:36:26.428Z,1.90
2018-12-18T02:38:55.098Z,2.40
2018-12-18T02:41:23.729Z,2.20
2018-12-18T02:43:52.359Z,2.97
2018-12-18T02:46:21.011Z,2.07
2018-12-18T02:48:49.656Z,2.13
2018-12-18T02:51:18.268Z,1.63
2018-12-18T02:53:46.919Z,1.60
2018-12-18T02:56:15.544Z,2.00
2018-12-18T02:58:44.146Z,1.73
2018-12-18T03:01:12.785Z,1.80
2018-12-18T03:03:41.431Z,1.37
2018-12-18T03:06:10.091Z,1.63
2018-12-18T03:08:38.726Z,2.03
2018-12-18T03:11:09.459Z,2.63
2018-12-18T03:13:38.095Z,1.30
2018-12-18T03:16:06.739Z,1.50
2018-12-18T03:18:35.412Z,1.60
2018-12-18T03:21:04.114Z,1.10
2018-12-18T03:23:32.751Z,1.83
2018-12-18T03:26:01.351Z,1.90
2018-12-18T03:28:29.988Z,1.93
2018-12-18T03:30:58.631Z,1.47
2018-12-18T03:33:27.308Z,1.57
2018-12-18T03:35:55.951Z,1.67
2018-12-18T03:38:24.575Z,1.60
2018-12-18T03:40:53.195Z,1.30
2018-12-18T03:43:21.812Z,1.77
2018-12-18T03:45:50.445Z,1.43
2018-12-18T03:48:19.059Z,1.20
2018-12-18T03:50:47.680Z,1.43
2018-12-18T03:53:16.297Z,2.07
2018-12-18T03:55:44.971Z,1.53
2018-12-18T03:58:13.635Z,1.30
2018-12-18T04:00:42.289Z,1.57
2018-12-18T04:03:10.915Z,2.00
2018-12-18T04:05:39.560Z,2.27
2018-12-18T04:08:08.192Z,1.40
2018-12-18T04:10:36.853Z,1.30
2018-12-18T04:13:05.536Z,1.50
2018-12-18T04:15:34.164Z,1.97
2018-12-18T04:18:02.808Z,2.03
2018-12-18T04:20:31.431Z,1.67
2018-12-18T04:23:00.263Z,1.40
2018-12-18T04:25:28.904Z,2.70
2018-12-18T04:27:57.523Z,1.97
2018-12-18T04:30:26.171Z,3.90
2018-12-18T04:32:54.793Z,2.70
2018-12-18T04:35:23.417Z,2.40
2018-12-18T04:37:52.036Z,3.03
2018-12-18T04:40:20.678Z,2.70
2018-12-18T04:42:49.294Z,3.53
2018-12-18T04:45:17.986Z,2.20
2018-12-18T04:47:46.685Z,1.90
2018-12-18T04:50:15.419Z,2.17
2018-12-18T04:52:44.097Z,1.93
2018-12-18T04:55:12.804Z,3.10
2018-12-18T04:57:41.429Z,3.30
2018-12-18T05:00:10.656Z,2.70
2018-12-18T05:02:39.319Z,2.00
2018-12-18T05:05:08.020Z,1.97
2018-12-18T05:07:36.632Z,2.30
2018-12-18T05:10:05.583Z,1.87
2018-12-18T05:12:34.587Z,1.40
2018-12-18T05:15:03.242Z,1.20
2018-12-18T05:17:31.899Z,1.03
2018-12-18T05:20:00.507Z,1.30
2018-12-18T05:22:29.156Z,1.27
2018-12-18T05:24:57.789Z,1.83
2018-12-18T05:27:26.395Z,1.60
2018-12-18T05:29:54.988Z,1.40
2018-12-18T05:32:23.638Z,1.10
2018-12-18T05:34:56.486Z,1.20
2018-12-18T05:37:22.890Z,1.20
2018-12-18T05:39:51.502Z,1.10
2018-12-18T05:42:20.123Z,1.70
2018-12-18T05:44:48.731Z,1.50
2018-12-18T05:47:17.328Z,1.57
2018-12-18T05:49:45.939Z,1.37
2018-12-18T05:52:14.563Z,1.30
2018-12-18T05:54:43.167Z,1.13
2018-12-18T05:57:11.767Z,1.30
2018-12-18T05:59:40.530Z,1.07
2018-12-18T06:02:10.834Z,1.20
2018-12-18T06:04:39.838Z,1.30
2018-12-18T06:07:08.442Z,1.23
2018-12-18T06:09:37.076Z,1.53
2018-12-18T06:12:05.718Z,1.40
2018-12-18T06:14:34.397Z,1.37
2018-12-18T06:17:02.998Z,1.40
2018-12-18T06:19:31.603Z,1.67
2018-12-18T06:22:00.208Z,2.30
2018-12-18T06:24:28.807Z,2.00
2018-12-18T06:26:57.415Z,1.73
2018-12-18T06:29:26.042Z,2.20
2018-12-18T06:31:55.442Z,2.10
2018-12-18T06:34:24.213Z,2.30
2018-12-18T06:36:52.821Z,2.10
2018-12-18T06:39:21.422Z,2.27
2018-12-18T06:41:50.027Z,2.00
2018-12-18T06:44:18.647Z,2.00
2018-12-18T06:46:47.252Z,2.00
2018-12-18T06:49:15.849Z,1.90
2018-12-18T06:51:44.483Z,1.57
2018-12-18T06:54:13.254Z,1.80
2018-12-18T06:56:41.876Z,1.70
2018-12-18T06:59:10.536Z,1.80
2018-12-18T07:01:39.198Z,2.00
2018-12-18T07:04:07.843Z,1.90
2018-12-18T07:06:36.486Z,1.50
2018-12-18T07:09:08.230Z,2.23
2018-12-18T07:11:36.910Z,4.87
2018-12-18T07:14:05.523Z,2.00
2018-12-18T07:16:34.150Z,2.33
2018-12-18T07:19:02.764Z,2.10
2018-12-18T07:21:31.391Z,2.37
2018-12-18T07:24:00.078Z,1.60
2018-12-18T07:26:28.703Z,1.40
2018-12-18T07:28:57.362Z,3.87
2018-12-18T07:31:25.967Z,4.57
2018-12-18T07:33:54.574Z,4.83
2018-12-18T07:36:23.185Z,3.97
2018-12-18T07:38:51.792Z,3.67
2018-12-18T07:41:20.396Z,4.43
2018-12-18T07:43:49.012Z,3.53
2018-12-18T07:46:17.631Z,3.87
2018-12-18T07:48:46.247Z,4.17
2018-12-18T07:51:15.159Z,4.87
2018-12-18T07:53:43.788Z,4.47
2018-12-18T07:56:12.389Z,5.27
2018-12-18T07:58:41.004Z,4.97
2018-12-18T08:01:09.626Z,7.00
2018-12-18T08:03:38.282Z,14.40
2018-12-18T08:06:06.903Z,18.63
2018-12-18T08:08:35.519Z,21.33
2018-12-18T08:11:04.159Z,5.20
2018-12-18T08:13:32.751Z,3.17
2018-12-18T08:16:01.351Z,3.77
2018-12-18T08:18:29.970Z,3.33
2018-12-18T08:20:59.987Z,2.93
2018-12-18T08:23:33.234Z,2.57
2018-12-18T08:26:01.897Z,1.97
2018-12-18T08:28:30.524Z,1.93
2018-12-18T08:30:59.150Z,2.50
2018-12-18T08:33:27.764Z,2.73
2018-12-18T08:35:56.386Z,2.70
2018-12-18T08:38:25.094Z,1.93
2018-12-18T08:40:53.731Z,2.70
2018-12-18T08:43:22.345Z,2.60
2018-12-18T08:45:51.039Z,2.53
2018-12-18T08:48:19.675Z,2.23
2018-12-18T08:50:48.398Z,2.07
2018-12-18T08:53:17.161Z,2.80
2018-12-18T08:55:45.831Z,3.63
2018-12-18T08:58:14.481Z,2.20
2018-12-18T09:00:43.095Z,2.17
2018-12-18T09:03:11.734Z,1.90
2018-12-18T09:05:43.274Z,1.50
2018-12-18T09:08:11.019Z,2.27
2018-12-18T09:10:39.886Z,1.93
2018-12-18T09:13:09.059Z,1.60
2018-12-18T09:15:43.144Z,1.53
2018-12-18T09:18:11.762Z,1.63
2018-12-18T09:20:40.419Z,2.43
2018-12-18T09:23:09.036Z,1.70
2018-12-18T09:25:37.655Z,1.93
2018-12-18T09:28:06.295Z,1.60
2018-12-18T09:30:35.703Z,1.50
2018-12-18T09:33:05.660Z,1.90
2018-12-18T09:35:34.291Z,2.40
2018-12-18T09:40:15.868Z,1.97
2018-12-18T09:42:49.768Z,2.10
2018-12-18T09:45:18.472Z,1.80
2018-12-18T09:47:47.115Z,1.97
2018-12-18T09:50:15.772Z,2.73
2018-12-18T09:52:44.383Z,3.20
2018-12-18T09:55:13.047Z,2.97
2018-12-18T09:57:47.122Z,1.90
2018-12-18T10:00:15.801Z,2.07
2018-12-18T10:02:44.438Z,2.33
2018-12-18T10:05:13.080Z,2.40
2018-12-18T10:07:41.708Z,2.13
2018-12-18T10:10:10.365Z,1.90
2018-12-18T10:12:48.213Z,2.37
2018-12-18T10:15:16.921Z,2.17
2018-12-18T10:17:45.553Z,2.17
2018-12-18T10:20:14.175Z,2.87
2018-12-18T10:22:42.827Z,2.80
2018-12-18T10:25:11.606Z,2.73
2018-12-18T10:27:40.245Z,2.83
2018-12-18T10:30:09.059Z,1.80
2018-12-18T10:32:37.817Z,2.07
2018-12-18T10:35:07.099Z,2.10
2018-12-18T10:37:35.772Z,2.07
2018-12-18T10:40:05.977Z,2.80
2018-12-18T10:42:34.606Z,2.50
2018-12-18T10:45:03.300Z,3.40
2018-12-18T10:47:31.967Z,2.80
2018-12-18T10:50:00.597Z,2.40
2018-12-18T10:52:29.244Z,2.67
2018-12-18T10:54:57.863Z,5.30
2018-12-18T10:57:26.517Z,3.03
2018-12-18T10:59:55.156Z,3.87
2018-12-18T11:02:23.791Z,3.27
2018-12-18T11:04:52.419Z,2.27
2018-12-18T11:07:21.043Z,3.10
2018-12-18T11:09:49.688Z,2.40
2018-12-18T11:12:22.760Z,2.87
2018-12-18T11:14:51.431Z,2.37
2018-12-18T11:17:20.075Z,2.47
2018-12-18T11:19:49.564Z,2.97
2018-12-18T11:22:18.551Z,2.73
2018-12-18T11:24:47.196Z,2.73
2018-12-18T11:27:15.835Z,3.23
2018-12-18T11:29:44.489Z,2.23
2018-12-18T11:32:13.168Z,2.10
2018-12-18T11:34:41.787Z,2.63
2018-12-18T11:37:10.399Z,2.87
2018-12-18T11:39:39.090Z,2.80
2018-12-18T11:42:07.710Z,2.53
2018-12-18T11:44:36.358Z,2.30
2018-12-18T11:47:04.987Z,2.20
2018-12-18T11:49:33.612Z,2.00
2018-12-18T11:52:02.228Z,1.80
2018-12-18T11:54:30.844Z,2.10
2018-12-18T11:56:59.496Z,2.20
2018-12-18T11:59:28.107Z,2.63
2018-12-18T12:01:56.711Z,2.63
2018-12-18T12:04:25.377Z,3.17
2018-12-18T12:06:54.160Z,3.20
2018-12-18T12:09:22.784Z,3.03
2018-12-18T12:11:51.408Z,4.67
2018-12-18T12:14:20.045Z,3.70
2018-12-18T12:16:48.656Z,4.90
2018-12-18T12:19:17.283Z,3.07
2018-12-18T12:21:45.945Z,3.60
2018-12-18T12:24:14.575Z,4.23
2018-12-18T12:26:47.627Z,4.10
2018-12-18T12:29:16.287Z,4.67
2018-12-18T12:31:45.018Z,2.90
2018-12-18T12:34:13.614Z,3.80
2018-12-18T12:36:42.266Z,2.90
2018-12-18T12:39:10.899Z,3.27
2018-12-18T12:41:39.526Z,4.17
2018-12-18T12:44:08.155Z,2.40
2018-12-18T12:46:36.776Z,2.33
2018-12-18T12:49:10.764Z,1.90
2018-12-18T12:51:39.418Z,3.30
2018-12-18T12:54:08.039Z,2.30
2018-12-18T12:56:36.683Z,2.43
2018-12-18T12:59:05.348Z,2.53
2018-12-18T13:01:34.052Z,3.07
2018-12-18T13:04:02.679Z,3.57
2018-12-18T13:06:36.490Z,2.90
2018-12-18T13:09:02.008Z,2.93
2018-12-18T13:11:30.788Z,3.70
2018-12-18T13:13:59.436Z,3.50
2018-12-18T13:16:28.070Z,3.60
2018-12-18T13:18:56.699Z,3.00
2018-12-18T13:21:25.340Z,3.47
2018-12-18T13:23:53.868Z,3.90
2018-12-18T13:26:22.497Z,2.93
2018-12-18T13:28:51.147Z,3.50
2018-12-18T13:31:19.784Z,3.60
2018-12-18T13:33:48.391Z,3.80
2018-12-18T13:36:17.119Z,4.20
2018-12-18T13:38:45.733Z,5.83
2018-12-18T13:41:14.350Z,3.83
2018-12-18T13:43:42.997Z,3.70
2018-12-18T13:46:15.054Z,3.23
2018-12-18T13:48:42.310Z,2.90
2018-12-18T13:51:10.951Z,4.37
2018-12-18T13:53:39.564Z,3.57
2018-12-18T13:56:08.325Z,4.37
2018-12-18T13:58:36.957Z,3.57
2018-12-18T14:01:05.610Z,3.27
2018-12-18T14:03:34.282Z,4.90
2018-12-18T14:06:02.920Z,5.20
2018-12-18T14:08:31.552Z,6.50
2018-12-18T14:11:00.183Z,4.60
2018-12-18T14:13:28.836Z,4.33
2018-12-18T14:15:57.487Z,4.73
2018-12-18T14:18:26.283Z,4.63
2018-12-18T14:20:54.993Z,4.27
2018-12-18T14:23:23.607Z,4.30
2018-12-18T14:25:52.238Z,5.17
2018-12-18T14:28:20.899Z,5.50
2018-12-18T14:30:49.519Z,5.87
2018-12-18T14:33:18.154Z,6.10
2018-12-18T14:35:46.790Z,5.47
2018-12-18T14:38:15.414Z,4.17
2018-12-18T14:40:44.251Z,4.67
2018-12-18T14:43:13.187Z,4.77
2018-12-18T14:45:41.822Z,5.00
2018-12-18T14:48:10.500Z,4.63
2018-12-18T14:50:39.136Z,5.13
2018-12-18T14:53:07.760Z,5.83
2018-12-18T14:55:36.395Z,4.73
2018-12-18T14:58:05.034Z,5.63
2018-12-18T15:00:33.668Z,3.63
2018-12-18T15:03:02.336Z,4.33
2018-12-18T15:05:31.040Z,4.60
2018-12-18T15:07:59.683Z,5.07
2018-12-18T15:10:28.299Z,9.10
2018-12-18T15:12:56.957Z,6.53
2018-12-18T15:15:25.603Z,5.50
2018-12-18T15:17:54.233Z,6.27
2018-12-18T15:20:22.895Z,3.50
2018-12-18T15:22:51.508Z,4.03
2018-12-18T15:25:20.183Z,5.03
2018-12-18T15:27:48.825Z,4.70
2018-12-18T15:30:17.460Z,4.03
2018-12-18T15:32:46.144Z,4.10
2018-12-18T15:35:14.825Z,4.30
2018-12-18T15:37:43.730Z,4.07
2018-12-18T15:40:12.385Z,5.37
2018-12-18T15:42:41.079Z,6.33
2018-12-18T15:45:09.752Z,6.00
2018-12-18T15:47:38.427Z,4.17
2018-12-18T15:50:08.401Z,6.80
2018-12-18T15:52:37.066Z,8.37
2018-12-18T15:55:06.153Z,10.20
2018-12-18T15:57:34.804Z,9.13
2018-12-18T16:00:03.847Z,7.47
2018-12-18T16:02:32.692Z,8.43
2018-12-18T16:05:01.363Z,10.70
2018-12-18T16:07:30.032Z,9.73
2018-12-18T16:09:58.675Z,8.57
2018-12-18T16:12:27.295Z,8.73
2018-12-18T16:14:55.972Z,8.20
2018-12-18T16:17:24.618Z,6.73
2018-12-18T16:19:53.246Z,6.60
2018-12-18T16:22:21.868Z,5.03
2018-12-18T16:24:50.488Z,5.87
2018-12-18T16:27:19.100Z,5.30
2018-12-18T16:29:47.741Z,5.27
2018-12-18T16:32:16.426Z,4.93
2018-12-18T16:34:45.077Z,5.10
2018-12-18T16:37:13.776Z,3.43
2018-12-18T16:39:42.417Z,4.20
2018-12-18T16:42:11.035Z,5.60
2018-12-18T16:44:39.643Z,4.10
2018-12-18T16:47:08.259Z,5.53
2018-12-18T16:49:36.884Z,3.80
2018-12-18T16:52:05.610Z,6.97
2018-12-18T16:54:34.520Z,4.67
2018-12-18T16:57:03.199Z,5.97
2018-12-18T16:59:31.852Z,2.03
2018-12-18T17:02:00.471Z,4.57
2018-12-18T17:04:29.136Z,3.90
2018-12-18T17:06:57.748Z,2.33
2018-12-18T17:09:26.390Z,1.60
2018-12-18T17:11:55.011Z,2.20
2018-12-18T17:14:23.704Z,2.03
2018-12-18T17:16:52.350Z,1.93
2018-12-18T17:19:20.984Z,2.20
2018-12-18T17:21:49.612Z,2.70
2018-12-18T17:24:18.243Z,1.73
2018-12-18T17:26:47.054Z,1.77
2018-12-18T17:29:15.699Z,1.70
2018-12-18T17:31:44.316Z,1.67
2018-12-18T17:34:12.939Z,1.90
2018-12-18T17:36:41.555Z,2.27
2018-12-18T17:39:10.198Z,2.67
2018-12-18T17:41:38.822Z,2.23
2018-12-18T17:44:07.447Z,2.77
2018-12-18T17:46:36.098Z,2.40
2018-12-18T17:49:04.759Z,5.63
2018-12-18T17:51:33.363Z,8.23
2018-12-18T17:54:01.968Z,9.50
2018-12-18T17:56:30.578Z,8.40
2018-12-18T17:58:59.232Z,9.53
2018-12-18T18:01:27.843Z,9.47
2018-12-18T18:03:56.467Z,12.60
2018-12-18T18:06:25.112Z,15.20
2018-12-18T18:08:53.737Z,14.43
2018-12-18T18:11:22.415Z,12.53
2018-12-18T18:13:51.028Z,9.87
2018-12-18T18:16:19.647Z,7.30
2018-12-18T18:18:48.260Z,6.67
2018-12-18T18:21:16.890Z,4.80
2018-12-18T18:23:46.216Z,6.17
2018-12-18T18:26:15.704Z,5.93
2018-12-18T18:28:44.330Z,5.40
2018-12-18T18:31:12.975Z,5.07
2018-12-18T18:33:41.579Z,4.47
2018-12-18T18:36:10.208Z,4.83
2018-12-18T18:38:38.851Z,3.73
2018-12-18T18:41:07.495Z,4.83
2018-12-18T18:43:36.159Z,10.57
2018-12-18T18:46:04.790Z,11.93
2018-12-18T18:48:33.415Z,5.80
2018-12-18T18:51:02.108Z,17.17
2018-12-18T18:53:30.751Z,11.23
2018-12-18T18:55:59.659Z,8.63
2018-12-18T18:58:28.283Z,9.40
2018-12-18T19:00:57.052Z,8.27
2018-12-18T19:03:25.659Z,5.97
2018-12-18T19:05:54.335Z,4.70
2018-12-18T19:08:23.003Z,5.53
2018-12-18T19:10:51.628Z,8.17
2018-12-18T19:13:20.240Z,8.17
2018-12-18T19:15:48.861Z,10.80
2018-12-18T19:18:17.500Z,10.23
2018-12-18T19:20:46.118Z,12.27
2018-12-18T19:23:14.756Z,6.43
2018-12-18T19:25:43.379Z,5.40
2018-12-18T19:28:12.036Z,4.77
2018-12-18T19:30:40.657Z,6.90
2018-12-18T19:33:09.297Z,8.20
2018-12-18T19:35:37.927Z,8.70
2018-12-18T19:38:07.536Z,7.93
2018-12-18T19:40:36.619Z,5.33
2018-12-18T19:43:05.239Z,5.83
2018-12-18T19:45:33.872Z,6.33
2018-12-18T19:48:02.491Z,6.83
2018-12-18T19:50:31.119Z,6.93
2018-12-18T19:52:59.742Z,7.10
2018-12-18T19:55:28.431Z,6.97
2018-12-18T19:57:57.117Z,6.40
2018-12-18T20:00:25.740Z,4.73
2018-12-18T20:02:54.381Z,6.90
2018-12-18T20:05:23.055Z,5.90
2018-12-18T20:07:51.703Z,6.27
2018-12-18T20:10:20.316Z,6.53
2018-12-18T20:12:48.944Z,4.17
2018-12-18T20:15:17.572Z,4.73
2018-12-18T20:17:46.207Z,6.43
2018-12-18T20:20:14.831Z,6.00
2018-12-18T20:22:43.462Z,5.60
2018-12-18T20:25:12.096Z,5.13
2018-12-18T20:27:40.699Z,4.03
2018-12-18T20:30:09.414Z,4.33
2018-12-18T20:32:38.152Z,5.27
2018-12-18T20:35:06.769Z,4.03
2018-12-18T20:37:35.432Z,5.40
2018-12-18T20:40:04.484Z,4.70
2018-12-18T20:42:33.096Z,4.37
2018-12-18T20:45:01.708Z,4.47
2018-12-18T20:47:30.340Z,4.07
2018-12-18T20:49:58.959Z,5.13
2018-12-18T20:52:27.586Z,4.20
2018-12-18T20:54:56.256Z,4.07
2018-12-18T20:57:24.923Z,4.63
2018-12-18T20:59:53.585Z,3.50
2018-12-18T21:02:22.216Z,6.43
2018-12-18T21:04:50.818Z,5.63
2018-12-18T21:07:19.477Z,5.80
2018-12-18T21:09:48.179Z,4.50
2018-12-18T21:12:21.855Z,3.53
2018-12-18T21:14:51.268Z,4.00
2018-12-18T21:17:19.917Z,5.63
2018-12-18T21:19:55.783Z,6.07
2018-12-18T21:22:26.137Z,6.30
2018-12-18T21:25:03.764Z,5.50
2018-12-18T21:27:34.299Z,6.00
2018-12-18T21:30:04.961Z,5.57
2018-12-18T21:32:35.914Z,7.70
2018-12-18T21:35:05.253Z,5.77
2018-12-18T21:37:33.951Z,5.23
2018-12-18T21:40:02.600Z,5.70
2018-12-18T21:42:31.197Z,5.50
2018-12-18T21:44:59.892Z,6.13
2018-12-18T21:47:28.537Z,5.57
2018-12-18T21:49:57.195Z,4.53
2018-12-18T21:52:27.319Z,4.63
2018-12-18T21:54:55.996Z,5.20
2018-12-18T21:57:32.680Z,6.20
2018-12-18T22:00:01.374Z,8.90
2018-12-18T22:02:30.019Z,5.77
2018-12-18T22:04:58.619Z,7.63
2018-12-18T22:07:27.290Z,7.77
2018-12-18T22:09:55.932Z,8.40
2018-12-18T22:12:25.735Z,9.33
2018-12-18T22:14:54.464Z,8.00
2018-12-18T22:17:23.128Z,9.23
2018-12-18T22:19:51.746Z,6.20
2018-12-18T22:22:20.356Z,8.53
2018-12-18T22:24:49.003Z,8.27
2018-12-18T22:27:17.619Z,6.40
2018-12-18T22:29:46.233Z,5.57
2018-12-18T22:32:14.875Z,5.10
2018-12-18T22:34:43.514Z,6.00
2018-12-18T22:37:12.180Z,4.97
2018-12-18T22:39:40.834Z,5.23
2018-12-18T22:42:09.508Z,4.83
2018-12-18T22:44:38.128Z,4.70
2018-12-18T22:47:06.731Z,6.03
2018-12-18T22:49:37.494Z,4.23
2018-12-18T22:52:06.111Z,12.40
2018-12-18T22:54:34.708Z,10.83
2018-12-18T22:57:03.335Z,6.63
2018-12-18T22:59:31.959Z,5.33
2018-12-18T23:02:05.010Z,3.27
2018-12-18T23:04:33.932Z,5.00
2018-12-18T23:07:02.597Z,6.20
2018-12-18T23:09:31.193Z,4.63
2018-12-18T23:11:59.838Z,4.83
2018-12-18T23:14:28.506Z,7.17
2018-12-18T23:16:57.171Z,7.63
2018-12-18T23:19:25.844Z,7.23
2018-12-18T23:21:54.474Z,6.00
2018-12-18T23:24:23.105Z,5.90
2018-12-18T23:26:51.723Z,4.70
2018-12-18T23:29:20.335Z,3.93
2018-12-18T23:31:48.972Z,4.13
2018-12-18T23:34:17.610Z,3.70
2018-12-18T23:36:46.222Z,3.70
2018-12-18T23:39:14.856Z,4.70
2018-12-18T23:41:43.475Z,4.27
2018-12-18T23:44:12.096Z,5.43
2018-12-18T23:46:40.695Z,3.90
2018-12-18T23:49:09.326Z,3.40
2018-12-18T23:51:37.960Z,3.97
2018-12-18T23:54:06.591Z,4.03
2018-12-18T23:56:35.255Z,2.27
2018-12-18T23:59:03.916Z,2.87
